sensor_id;sensor_type;location;lat;lon;timestamp;temperature;humidity
27647;DHT22;42229;51.230;6.240;2023-12-20T00:01:43;9.40;99.90
27647;DHT22;42229;51.230;6.240;2023-12-20T00:04:10;9.40;99.90
27647;DHT22;42229;51.230;6.240;2023-12-20T00:06:36;9.40;99.90
27647;DHT22;42229;51.230;6.240;2023-12-20T00:09:02;9.40;99.90
27647;DHT22;42229;51.230;6.240;2023-12-20T00:11:28;9.40;99.90
27647;DHT22;42229;51.230;6.240;2023-12-20T00:13:55;9.40;99.90
27647;DHT22;42229;51.230;6.240;2023-12-20T00:16:21;9.50;99.90
27647;DHT22;42229;51.230;6.240;2023-12-20T00:18:47;9.40;99.90
27647;DHT22;42229;51.230;6.240;2023-12-20T00:21:13;9.50;99.90
27647;DHT22;42229;51.230;6.240;2023-12-20T00:23:40;9.50;99.90
27647;DHT22;42229;51.230;6.240;2023-12-20T00:26:06;9.50;99.90
27647;DHT22;42229;51.230;6.240;2023-12-20T00:28:32;9.40;99.90
27647;DHT22;42229;51.230;6.240;2023-12-20T00:30:58;9.40;99.90
27647;DHT22;42229;51.230;6.240;2023-12-20T00:33:24;9.40;99.90
27647;DHT22;42229;51.230;6.240;2023-12-20T00:35:51;9.40;99.90
27647;DHT22;42229;51.230;6.240;2023-12-20T00:38:17;9.40;99.90
27647;DHT22;42229;51.230;6.240;2023-12-20T00:40:43;9.30;99.90
27647;DHT22;42229;51.230;6.240;2023-12-20T00:43:09;9.30;99.90
27647;DHT22;42229;51.230;6.240;2023-12-20T00:45:35;9.20;99.90
27647;DHT22;42229;51.230;6.240;2023-12-20T00:48:02;9.30;99.90
27647;DHT22;42229;51.230;6.240;2023-12-20T00:50:29;9.20;99.90
27647;DHT22;42229;51.230;6.240;2023-12-20T00:52:55;9.20;99.90
27647;DHT22;42229;51.230;6.240;2023-12-20T00:55:22;9.20;99.90
27647;DHT22;42229;51.230;6.240;2023-12-20T00:57:48;9.20;99.90
27647;DHT22;42229;51.230;6.240;2023-12-20T01:00:14;9.20;99.90
27647;DHT22;42229;51.230;6.240;2023-12-20T01:02:40;9.10;99.90
27647;DHT22;42229;51.230;6.240;2023-12-20T01:05:07;9.10;99.90
27647;DHT22;42229;51.230;6.240;2023-12-20T01:07:35;9.00;99.90
27647;DHT22;42229;51.230;6.240;2023-12-20T01:10:01;9.00;99.90
27647;DHT22;42229;51.230;6.240;2023-12-20T01:12:27;9.00;99.90
27647;DHT22;42229;51.230;6.240;2023-12-20T01:14:54;8.90;99.90
27647;DHT22;42229;51.230;6.240;2023-12-20T01:17:20;8.90;99.90
27647;DHT22;42229;51.230;6.240;2023-12-20T01:19:46;8.90;99.90
27647;DHT22;42229;51.230;6.240;2023-12-20T01:22:13;8.90;99.90
27647;DHT22;42229;51.230;6.240;2023-12-20T01:24:39;8.90;99.90
27647;DHT22;42229;51.230;6.240;2023-12-20T01:27:05;8.80;99.90
27647;DHT22;42229;51.230;6.240;2023-12-20T01:29:31;8.80;99.90
27647;DHT22;42229;51.230;6.240;2023-12-20T01:31:57;8.80;99.90
27647;DHT22;42229;51.230;6.240;2023-12-20T01:34:24;8.80;99.90
27647;DHT22;42229;51.230;6.240;2023-12-20T01:36:50;8.80;99.90
27647;DHT22;42229;51.230;6.240;2023-12-20T01:39:17;8.70;99.90
27647;DHT22;42229;51.230;6.240;2023-12-20T01:41:43;8.70;99.90
27647;DHT22;42229;51.230;6.240;2023-12-20T01:44:11;8.60;99.90
27647;DHT22;42229;51.230;6.240;2023-12-20T01:46:37;8.60;99.90
27647;DHT22;42229;51.230;6.240;2023-12-20T01:49:03;8.60;99.90
27647;DHT22;42229;51.230;6.240;2023-12-20T01:51:30;8.50;99.90
27647;DHT22;42229;51.230;6.240;2023-12-20T01:53:56;8.50;99.90
27647;DHT22;42229;51.230;6.240;2023-12-20T01:56:24;8.40;99.90
27647;DHT22;42229;51.230;6.240;2023-12-20T01:58:50;8.30;99.90
27647;DHT22;42229;51.230;6.240;2023-12-20T02:01:16;8.30;99.90
27647;DHT22;42229;51.230;6.240;2023-12-20T02:03:43;8.30;99.90
27647;DHT22;42229;51.230;6.240;2023-12-20T02:06:09;8.20;99.90
27647;DHT22;42229;51.230;6.240;2023-12-20T02:08:36;8.20;99.90
27647;DHT22;42229;51.230;6.240;2023-12-20T02:11:02;8.20;99.90
27647;DHT22;42229;51.230;6.240;2023-12-20T02:13:28;8.10;99.90
27647;DHT22;42229;51.230;6.240;2023-12-20T02:15:54;8.10;99.90
27647;DHT22;42229;51.230;6.240;2023-12-20T02:18:21;8.10;99.90
27647;DHT22;42229;51.230;6.240;2023-12-20T02:20:47;8.00;99.90
27647;DHT22;42229;51.230;6.240;2023-12-20T02:23:13;8.00;99.90
27647;DHT22;42229;51.230;6.240;2023-12-20T02:25:39;8.00;99.90
27647;DHT22;42229;51.230;6.240;2023-12-20T02:28:06;7.90;99.90
27647;DHT22;42229;51.230;6.240;2023-12-20T02:30:32;7.90;99.90
27647;DHT22;42229;51.230;6.240;2023-12-20T02:32:59;7.90;99.90
27647;DHT22;42229;51.230;6.240;2023-12-20T02:35:25;7.90;99.90
27647;DHT22;42229;51.230;6.240;2023-12-20T02:37:52;7.80;99.90
27647;DHT22;42229;51.230;6.240;2023-12-20T02:40:18;7.80;99.90
27647;DHT22;42229;51.230;6.240;2023-12-20T02:42:44;7.80;99.90
27647;DHT22;42229;51.230;6.240;2023-12-20T02:45:10;7.80;99.90
27647;DHT22;42229;51.230;6.240;2023-12-20T02:47:36;7.70;99.90
27647;DHT22;42229;51.230;6.240;2023-12-20T02:50:03;7.70;99.90
27647;DHT22;42229;51.230;6.240;2023-12-20T02:52:29;7.60;99.90
27647;DHT22;42229;51.230;6.240;2023-12-20T02:54:56;7.60;99.90
27647;DHT22;42229;51.230;6.240;2023-12-20T02:57:22;7.60;99.90
27647;DHT22;42229;51.230;6.240;2023-12-20T02:59:48;7.60;99.90
27647;DHT22;42229;51.230;6.240;2023-12-20T03:02:14;7.60;99.90
27647;DHT22;42229;51.230;6.240;2023-12-20T03:04:41;7.60;99.90
27647;DHT22;42229;51.230;6.240;2023-12-20T03:07:07;7.60;99.90
27647;DHT22;42229;51.230;6.240;2023-12-20T03:09:33;7.60;99.90
27647;DHT22;42229;51.230;6.240;2023-12-20T03:11:59;7.70;99.90
27647;DHT22;42229;51.230;6.240;2023-12-20T03:14:25;7.70;99.90
27647;DHT22;42229;51.230;6.240;2023-12-20T03:16:52;7.70;99.90
27647;DHT22;42229;51.230;6.240;2023-12-20T03:19:18;7.70;99.90
27647;DHT22;42229;51.230;6.240;2023-12-20T03:21:47;7.70;99.90
27647;DHT22;42229;51.230;6.240;2023-12-20T03:24:13;7.70;99.90
27647;DHT22;42229;51.230;6.240;2023-12-20T03:26:39;7.70;99.90
27647;DHT22;42229;51.230;6.240;2023-12-20T03:29:06;7.70;99.90
27647;DHT22;42229;51.230;6.240;2023-12-20T03:31:32;7.70;99.90
27647;DHT22;42229;51.230;6.240;2023-12-20T03:33:58;7.70;99.90
27647;DHT22;42229;51.230;6.240;2023-12-20T03:36:24;7.70;99.90
27647;DHT22;42229;51.230;6.240;2023-12-20T03:38:51;7.70;99.90
27647;DHT22;42229;51.230;6.240;2023-12-20T03:41:17;7.70;99.90
27647;DHT22;42229;51.230;6.240;2023-12-20T03:43:43;7.70;99.90
27647;DHT22;42229;51.230;6.240;2023-12-20T03:46:09;7.70;99.90
27647;DHT22;42229;51.230;6.240;2023-12-20T03:48:35;7.60;99.90
27647;DHT22;42229;51.230;6.240;2023-12-20T03:51:02;7.60;99.90
27647;DHT22;42229;51.230;6.240;2023-12-20T03:53:28;7.60;99.90
27647;DHT22;42229;51.230;6.240;2023-12-20T03:55:54;7.60;99.90
27647;DHT22;42229;51.230;6.240;2023-12-20T03:58:20;7.50;99.90
27647;DHT22;42229;51.230;6.240;2023-12-20T04:00:47;7.50;99.90
27647;DHT22;42229;51.230;6.240;2023-12-20T04:03:13;7.50;99.90
27647;DHT22;42229;51.230;6.240;2023-12-20T04:05:40;7.50;99.90
27647;DHT22;42229;51.230;6.240;2023-12-20T04:08:07;7.40;99.90
27647;DHT22;42229;51.230;6.240;2023-12-20T04:10:33;7.40;99.90
27647;DHT22;42229;51.230;6.240;2023-12-20T04:13:03;7.40;99.90
27647;DHT22;42229;51.230;6.240;2023-12-20T04:15:29;7.40;99.90
27647;DHT22;42229;51.230;6.240;2023-12-20T04:17:55;7.40;99.90
27647;DHT22;42229;51.230;6.240;2023-12-20T04:20:22;7.40;99.90
27647;DHT22;42229;51.230;6.240;2023-12-20T04:22:48;7.40;99.90
27647;DHT22;42229;51.230;6.240;2023-12-20T04:25:14;7.30;99.90
27647;DHT22;42229;51.230;6.240;2023-12-20T04:27:40;7.30;99.90
27647;DHT22;42229;51.230;6.240;2023-12-20T04:30:07;7.30;99.90
27647;DHT22;42229;51.230;6.240;2023-12-20T04:32:33;7.30;99.90
27647;DHT22;42229;51.230;6.240;2023-12-20T04:34:59;7.30;99.90
27647;DHT22;42229;51.230;6.240;2023-12-20T04:37:26;7.30;99.90
27647;DHT22;42229;51.230;6.240;2023-12-20T04:39:52;7.30;99.90
27647;DHT22;42229;51.230;6.240;2023-12-20T04:42:18;7.30;99.90
27647;DHT22;42229;51.230;6.240;2023-12-20T04:44:44;7.30;99.90
27647;DHT22;42229;51.230;6.240;2023-12-20T04:47:10;7.30;99.90
27647;DHT22;42229;51.230;6.240;2023-12-20T04:49:37;7.30;99.90
27647;DHT22;42229;51.230;6.240;2023-12-20T04:52:03;7.30;99.90
27647;DHT22;42229;51.230;6.240;2023-12-20T04:54:29;7.30;99.90
27647;DHT22;42229;51.230;6.240;2023-12-20T04:56:56;7.40;99.90
27647;DHT22;42229;51.230;6.240;2023-12-20T04:59:22;7.40;99.90
27647;DHT22;42229;51.230;6.240;2023-12-20T05:01:48;7.40;99.90
27647;DHT22;42229;51.230;6.240;2023-12-20T05:04:14;7.40;99.90
27647;DHT22;42229;51.230;6.240;2023-12-20T05:06:40;7.50;99.90
27647;DHT22;42229;51.230;6.240;2023-12-20T05:09:07;7.50;99.90
27647;DHT22;42229;51.230;6.240;2023-12-20T05:11:33;7.50;99.90
27647;DHT22;42229;51.230;6.240;2023-12-20T05:13:59;7.50;99.90
27647;DHT22;42229;51.230;6.240;2023-12-20T05:16:25;7.60;99.90
27647;DHT22;42229;51.230;6.240;2023-12-20T05:18:52;7.60;99.90
27647;DHT22;42229;51.230;6.240;2023-12-20T05:21:18;7.60;99.90
27647;DHT22;42229;51.230;6.240;2023-12-20T05:23:45;7.60;99.90
27647;DHT22;42229;51.230;6.240;2023-12-20T05:26:11;7.60;99.90
27647;DHT22;42229;51.230;6.240;2023-12-20T05:28:37;7.70;99.90
27647;DHT22;42229;51.230;6.240;2023-12-20T05:31:04;7.80;99.90
27647;DHT22;42229;51.230;6.240;2023-12-20T05:33:30;7.80;99.90
27647;DHT22;42229;51.230;6.240;2023-12-20T05:35:56;7.80;99.90
27647;DHT22;42229;51.230;6.240;2023-12-20T05:38:23;7.80;99.90
27647;DHT22;42229;51.230;6.240;2023-12-20T05:40:49;7.90;99.90
27647;DHT22;42229;51.230;6.240;2023-12-20T05:43:15;7.90;99.90
27647;DHT22;42229;51.230;6.240;2023-12-20T05:45:41;7.90;99.90
27647;DHT22;42229;51.230;6.240;2023-12-20T05:48:08;7.90;99.90
27647;DHT22;42229;51.230;6.240;2023-12-20T05:50:34;7.90;99.90
27647;DHT22;42229;51.230;6.240;2023-12-20T05:53:00;7.90;99.90
27647;DHT22;42229;51.230;6.240;2023-12-20T05:55:27;7.90;99.90
27647;DHT22;42229;51.230;6.240;2023-12-20T05:57:53;8.00;99.90
27647;DHT22;42229;51.230;6.240;2023-12-20T06:00:19;8.00;99.90
27647;DHT22;42229;51.230;6.240;2023-12-20T06:02:45;8.00;99.90
27647;DHT22;42229;51.230;6.240;2023-12-20T06:05:12;8.00;99.90
27647;DHT22;42229;51.230;6.240;2023-12-20T06:07:38;8.00;99.90
27647;DHT22;42229;51.230;6.240;2023-12-20T06:10:04;8.00;99.90
27647;DHT22;42229;51.230;6.240;2023-12-20T06:12:32;8.00;99.90
27647;DHT22;42229;51.230;6.240;2023-12-20T06:14:59;8.00;99.90
27647;DHT22;42229;51.230;6.240;2023-12-20T06:17:25;8.00;99.90
27647;DHT22;42229;51.230;6.240;2023-12-20T06:19:51;8.10;99.90
27647;DHT22;42229;51.230;6.240;2023-12-20T06:22:18;8.00;99.90
27647;DHT22;42229;51.230;6.240;2023-12-20T06:24:44;8.10;99.90
27647;DHT22;42229;51.230;6.240;2023-12-20T06:27:10;8.10;99.90
27647;DHT22;42229;51.230;6.240;2023-12-20T06:29:37;8.10;99.90
27647;DHT22;42229;51.230;6.240;2023-12-20T06:32:03;8.10;99.90
27647;DHT22;42229;51.230;6.240;2023-12-20T06:34:29;8.10;99.90
27647;DHT22;42229;51.230;6.240;2023-12-20T06:36:56;8.10;99.90
27647;DHT22;42229;51.230;6.240;2023-12-20T06:39:22;8.10;99.90
27647;DHT22;42229;51.230;6.240;2023-12-20T06:41:48;8.10;99.90
27647;DHT22;42229;51.230;6.240;2023-12-20T06:44:14;8.20;99.90
27647;DHT22;42229;51.230;6.240;2023-12-20T06:46:41;8.10;99.90
27647;DHT22;42229;51.230;6.240;2023-12-20T06:49:07;8.20;99.90
27647;DHT22;42229;51.230;6.240;2023-12-20T06:51:33;8.20;99.90
27647;DHT22;42229;51.230;6.240;2023-12-20T06:53:59;8.20;99.90
27647;DHT22;42229;51.230;6.240;2023-12-20T06:56:26;8.20;99.90
27647;DHT22;42229;51.230;6.240;2023-12-20T06:58:52;8.20;99.90
27647;DHT22;42229;51.230;6.240;2023-12-20T07:01:18;8.20;99.90
27647;DHT22;42229;51.230;6.240;2023-12-20T07:03:44;8.20;99.90
27647;DHT22;42229;51.230;6.240;2023-12-20T07:06:10;8.30;99.90
27647;DHT22;42229;51.230;6.240;2023-12-20T07:08:37;8.20;99.90
27647;DHT22;42229;51.230;6.240;2023-12-20T07:11:03;8.30;99.90
27647;DHT22;42229;51.230;6.240;2023-12-20T07:13:29;8.30;99.90
27647;DHT22;42229;51.230;6.240;2023-12-20T07:15:55;8.30;99.90
27647;DHT22;42229;51.230;6.240;2023-12-20T07:18:22;8.30;99.90
27647;DHT22;42229;51.230;6.240;2023-12-20T07:20:48;8.20;99.90
27647;DHT22;42229;51.230;6.240;2023-12-20T07:23:14;8.30;99.90
27647;DHT22;42229;51.230;6.240;2023-12-20T07:25:40;8.30;99.90
27647;DHT22;42229;51.230;6.240;2023-12-20T07:28:06;8.30;99.90
27647;DHT22;42229;51.230;6.240;2023-12-20T07:30:33;8.30;99.90
27647;DHT22;42229;51.230;6.240;2023-12-20T07:32:59;8.20;99.90
27647;DHT22;42229;51.230;6.240;2023-12-20T07:35:26;8.20;99.90
27647;DHT22;42229;51.230;6.240;2023-12-20T07:37:53;8.30;99.90
27647;DHT22;42229;51.230;6.240;2023-12-20T07:40:19;8.30;99.90
27647;DHT22;42229;51.230;6.240;2023-12-20T07:42:45;8.20;99.90
27647;DHT22;42229;51.230;6.240;2023-12-20T07:45:11;8.20;99.90
27647;DHT22;42229;51.230;6.240;2023-12-20T07:47:38;8.20;99.90
27647;DHT22;42229;51.230;6.240;2023-12-20T07:50:04;8.20;99.90
27647;DHT22;42229;51.230;6.240;2023-12-20T07:52:31;8.20;99.90
27647;DHT22;42229;51.230;6.240;2023-12-20T07:54:57;8.10;99.90
27647;DHT22;42229;51.230;6.240;2023-12-20T07:57:23;8.10;99.90
27647;DHT22;42229;51.230;6.240;2023-12-20T07:59:49;8.10;99.90
27647;DHT22;42229;51.230;6.240;2023-12-20T08:02:16;8.00;99.90
27647;DHT22;42229;51.230;6.240;2023-12-20T08:04:42;8.10;99.90
27647;DHT22;42229;51.230;6.240;2023-12-20T08:07:08;8.10;99.90
27647;DHT22;42229;51.230;6.240;2023-12-20T08:09:34;8.10;99.90
27647;DHT22;42229;51.230;6.240;2023-12-20T08:12:02;8.10;99.90
27647;DHT22;42229;51.230;6.240;2023-12-20T08:14:29;8.00;99.90
27647;DHT22;42229;51.230;6.240;2023-12-20T08:16:55;8.00;99.90
27647;DHT22;42229;51.230;6.240;2023-12-20T08:19:21;8.00;99.90
27647;DHT22;42229;51.230;6.240;2023-12-20T08:21:47;8.00;99.90
27647;DHT22;42229;51.230;6.240;2023-12-20T08:24:13;8.00;99.90
27647;DHT22;42229;51.230;6.240;2023-12-20T08:26:40;8.00;99.90
27647;DHT22;42229;51.230;6.240;2023-12-20T08:29:06;8.00;99.90
27647;DHT22;42229;51.230;6.240;2023-12-20T08:31:32;8.10;99.90
27647;DHT22;42229;51.230;6.240;2023-12-20T08:33:58;8.00;99.90
27647;DHT22;42229;51.230;6.240;2023-12-20T08:36:24;8.10;99.90
27647;DHT22;42229;51.230;6.240;2023-12-20T08:38:51;8.10;99.90
27647;DHT22;42229;51.230;6.240;2023-12-20T08:41:17;8.10;99.90
27647;DHT22;42229;51.230;6.240;2023-12-20T08:43:43;8.10;99.90
27647;DHT22;42229;51.230;6.240;2023-12-20T08:46:10;8.10;99.90
27647;DHT22;42229;51.230;6.240;2023-12-20T08:48:36;8.10;99.90
27647;DHT22;42229;51.230;6.240;2023-12-20T08:51:03;8.20;99.90
27647;DHT22;42229;51.230;6.240;2023-12-20T08:53:30;8.20;99.90
27647;DHT22;42229;51.230;6.240;2023-12-20T08:55:56;8.20;99.90
27647;DHT22;42229;51.230;6.240;2023-12-20T08:58:27;8.20;99.90
27647;DHT22;42229;51.230;6.240;2023-12-20T09:00:54;8.20;99.90
27647;DHT22;42229;51.230;6.240;2023-12-20T09:03:20;8.20;99.90
27647;DHT22;42229;51.230;6.240;2023-12-20T09:05:46;8.30;99.90
27647;DHT22;42229;51.230;6.240;2023-12-20T09:08:12;8.20;99.90
27647;DHT22;42229;51.230;6.240;2023-12-20T09:10:38;8.30;99.90
27647;DHT22;42229;51.230;6.240;2023-12-20T09:13:05;8.30;99.90
27647;DHT22;42229;51.230;6.240;2023-12-20T09:15:31;8.40;99.90
27647;DHT22;42229;51.230;6.240;2023-12-20T09:17:59;8.40;99.90
27647;DHT22;42229;51.230;6.240;2023-12-20T09:20:26;8.40;99.90
27647;DHT22;42229;51.230;6.240;2023-12-20T09:22:53;8.40;99.90
27647;DHT22;42229;51.230;6.240;2023-12-20T09:25:19;8.40;99.90
27647;DHT22;42229;51.230;6.240;2023-12-20T09:27:45;8.40;99.90
27647;DHT22;42229;51.230;6.240;2023-12-20T09:30:12;8.40;99.90
27647;DHT22;42229;51.230;6.240;2023-12-20T09:32:38;8.50;99.90
27647;DHT22;42229;51.230;6.240;2023-12-20T09:35:05;8.50;99.90
27647;DHT22;42229;51.230;6.240;2023-12-20T09:37:32;8.50;99.90
27647;DHT22;42229;51.230;6.240;2023-12-20T09:39:58;8.50;99.90
27647;DHT22;42229;51.230;6.240;2023-12-20T09:42:29;8.50;99.90
27647;DHT22;42229;51.230;6.240;2023-12-20T09:45:04;8.60;99.90
27647;DHT22;42229;51.230;6.240;2023-12-20T09:47:35;8.60;99.90
27647;DHT22;42229;51.230;6.240;2023-12-20T09:50:02;8.60;99.90
27647;DHT22;42229;51.230;6.240;2023-12-20T09:52:28;8.60;99.90
27647;DHT22;42229;51.230;6.240;2023-12-20T09:54:55;8.70;99.90
27647;DHT22;42229;51.230;6.240;2023-12-20T09:57:21;8.70;99.90
27647;DHT22;42229;51.230;6.240;2023-12-20T09:59:47;8.70;99.90
27647;DHT22;42229;51.230;6.240;2023-12-20T10:02:14;8.70;99.90
27647;DHT22;42229;51.230;6.240;2023-12-20T10:04:42;8.70;99.90
27647;DHT22;42229;51.230;6.240;2023-12-20T10:07:12;8.70;99.90
27647;DHT22;42229;51.230;6.240;2023-12-20T10:09:38;8.70;99.90
27647;DHT22;42229;51.230;6.240;2023-12-20T10:12:05;8.70;99.90
27647;DHT22;42229;51.230;6.240;2023-12-20T10:14:32;8.70;99.90
27647;DHT22;42229;51.230;6.240;2023-12-20T10:17:02;8.70;99.90
27647;DHT22;42229;51.230;6.240;2023-12-20T10:19:28;8.70;99.90
27647;DHT22;42229;51.230;6.240;2023-12-20T10:21:55;8.80;99.90
27647;DHT22;42229;51.230;6.240;2023-12-20T10:24:21;8.70;99.90
27647;DHT22;42229;51.230;6.240;2023-12-20T10:26:47;8.70;99.90
27647;DHT22;42229;51.230;6.240;2023-12-20T10:29:13;8.80;99.90
27647;DHT22;42229;51.230;6.240;2023-12-20T10:31:40;8.70;99.90
27647;DHT22;42229;51.230;6.240;2023-12-20T10:34:08;8.80;99.90
27647;DHT22;42229;51.230;6.240;2023-12-20T10:36:34;8.80;99.90
27647;DHT22;42229;51.230;6.240;2023-12-20T10:39:02;8.80;99.90
27647;DHT22;42229;51.230;6.240;2023-12-20T10:41:29;8.90;99.90
27647;DHT22;42229;51.230;6.240;2023-12-20T10:44:00;8.90;99.90
27647;DHT22;42229;51.230;6.240;2023-12-20T10:46:29;8.90;99.90
27647;DHT22;42229;51.230;6.240;2023-12-20T10:48:58;8.90;99.90
27647;DHT22;42229;51.230;6.240;2023-12-20T10:51:25;8.90;99.90
27647;DHT22;42229;51.230;6.240;2023-12-20T10:53:56;8.90;99.90
27647;DHT22;42229;51.230;6.240;2023-12-20T10:56:22;9.00;99.90
27647;DHT22;42229;51.230;6.240;2023-12-20T10:58:52;9.00;99.90
27647;DHT22;42229;51.230;6.240;2023-12-20T11:01:18;9.00;99.90
27647;DHT22;42229;51.230;6.240;2023-12-20T11:03:49;9.10;99.90
27647;DHT22;42229;51.230;6.240;2023-12-20T11:09:22;9.10;99.90
27647;DHT22;42229;51.230;6.240;2023-12-20T11:17:07;9.10;99.90
27647;DHT22;42229;51.230;6.240;2023-12-20T11:19:35;9.10;99.90
27647;DHT22;42229;51.230;6.240;2023-12-20T11:22:03;9.10;99.90
27647;DHT22;42229;51.230;6.240;2023-12-20T11:24:31;9.10;99.90
27647;DHT22;42229;51.230;6.240;2023-12-20T11:26:59;9.10;99.90
27647;DHT22;42229;51.230;6.240;2023-12-20T11:29:32;9.10;99.90
27647;DHT22;42229;51.230;6.240;2023-12-20T11:32:01;9.10;99.90
27647;DHT22;42229;51.230;6.240;2023-12-20T11:34:28;9.10;99.90
27647;DHT22;42229;51.230;6.240;2023-12-20T11:36:58;9.00;99.90
27647;DHT22;42229;51.230;6.240;2023-12-20T11:39:28;9.00;99.90
27647;DHT22;42229;51.230;6.240;2023-12-20T11:41:55;9.00;99.90
27647;DHT22;42229;51.230;6.240;2023-12-20T11:44:24;9.00;99.90
27647;DHT22;42229;51.230;6.240;2023-12-20T11:46:51;9.00;99.90
27647;DHT22;42229;51.230;6.240;2023-12-20T11:49:17;8.90;99.90
27647;DHT22;42229;51.230;6.240;2023-12-20T11:51:43;8.90;99.90
27647;DHT22;42229;51.230;6.240;2023-12-20T11:54:10;8.90;99.90
27647;DHT22;42229;51.230;6.240;2023-12-20T11:56:37;8.90;99.90
27647;DHT22;42229;51.230;6.240;2023-12-20T11:59:03;8.90;99.90
27647;DHT22;42229;51.230;6.240;2023-12-20T12:01:31;8.90;99.90
27647;DHT22;42229;51.230;6.240;2023-12-20T12:04:03;8.90;99.90
27647;DHT22;42229;51.230;6.240;2023-12-20T12:06:30;8.90;99.90
27647;DHT22;42229;51.230;6.240;2023-12-20T12:08:57;8.90;99.90
27647;DHT22;42229;51.230;6.240;2023-12-20T12:11:23;8.90;99.90
27647;DHT22;42229;51.230;6.240;2023-12-20T12:13:49;8.90;99.90
27647;DHT22;42229;51.230;6.240;2023-12-20T12:16:19;8.90;99.90
27647;DHT22;42229;51.230;6.240;2023-12-20T12:18:46;8.90;99.90
27647;DHT22;42229;51.230;6.240;2023-12-20T12:21:19;8.90;99.90
27647;DHT22;42229;51.230;6.240;2023-12-20T12:23:46;8.90;99.90
27647;DHT22;42229;51.230;6.240;2023-12-20T12:26:12;8.90;99.90
27647;DHT22;42229;51.230;6.240;2023-12-20T12:28:42;9.00;99.90
27647;DHT22;42229;51.230;6.240;2023-12-20T12:31:09;9.00;99.90
27647;DHT22;42229;51.230;6.240;2023-12-20T12:33:40;9.00;99.90
27647;DHT22;42229;51.230;6.240;2023-12-20T12:36:07;9.00;99.90
27647;DHT22;42229;51.230;6.240;2023-12-20T12:38:33;9.00;99.90
27647;DHT22;42229;51.230;6.240;2023-12-20T12:41:00;9.10;99.90
27647;DHT22;42229;51.230;6.240;2023-12-20T12:43:26;9.00;99.90
27647;DHT22;42229;51.230;6.240;2023-12-20T12:45:53;9.00;99.90
27647;DHT22;42229;51.230;6.240;2023-12-20T12:48:19;9.10;99.90
27647;DHT22;42229;51.230;6.240;2023-12-20T12:50:46;9.00;99.90
27647;DHT22;42229;51.230;6.240;2023-12-20T12:53:12;9.00;99.90
27647;DHT22;42229;51.230;6.240;2023-12-20T12:55:38;9.00;99.90
27647;DHT22;42229;51.230;6.240;2023-12-20T12:58:04;9.00;99.90
27647;DHT22;42229;51.230;6.240;2023-12-20T13:00:31;9.00;99.90
27647;DHT22;42229;51.230;6.240;2023-12-20T13:02:57;8.90;99.90
27647;DHT22;42229;51.230;6.240;2023-12-20T13:05:23;9.00;99.90
27647;DHT22;42229;51.230;6.240;2023-12-20T13:07:49;8.90;99.90
27647;DHT22;42229;51.230;6.240;2023-12-20T13:10:15;8.90;99.90
27647;DHT22;42229;51.230;6.240;2023-12-20T13:12:44;8.90;99.90
27647;DHT22;42229;51.230;6.240;2023-12-20T13:15:11;8.90;99.90
27647;DHT22;42229;51.230;6.240;2023-12-20T13:17:37;8.90;99.90
27647;DHT22;42229;51.230;6.240;2023-12-20T13:20:04;8.90;99.90
27647;DHT22;42229;51.230;6.240;2023-12-20T13:22:31;9.00;99.90
27647;DHT22;42229;51.230;6.240;2023-12-20T13:24:57;9.00;99.90
27647;DHT22;42229;51.230;6.240;2023-12-20T13:27:23;8.90;99.90
27647;DHT22;42229;51.230;6.240;2023-12-20T13:29:50;8.90;99.90
27647;DHT22;42229;51.230;6.240;2023-12-20T13:32:16;8.90;99.90
27647;DHT22;42229;51.230;6.240;2023-12-20T13:34:44;8.90;99.90
27647;DHT22;42229;51.230;6.240;2023-12-20T13:37:10;8.90;99.90
27647;DHT22;42229;51.230;6.240;2023-12-20T13:39:37;8.90;99.90
27647;DHT22;42229;51.230;6.240;2023-12-20T13:42:03;8.90;99.90
27647;DHT22;42229;51.230;6.240;2023-12-20T13:44:29;8.90;99.90
27647;DHT22;42229;51.230;6.240;2023-12-20T13:46:56;8.90;99.90
27647;DHT22;42229;51.230;6.240;2023-12-20T13:49:22;8.90;99.90
27647;DHT22;42229;51.230;6.240;2023-12-20T13:51:51;9.00;99.90
27647;DHT22;42229;51.230;6.240;2023-12-20T13:54:19;9.00;99.90
27647;DHT22;42229;51.230;6.240;2023-12-20T13:56:47;9.00;99.90
27647;DHT22;42229;51.230;6.240;2023-12-20T13:59:13;9.00;99.90
27647;DHT22;42229;51.230;6.240;2023-12-20T14:01:40;9.10;99.90
27647;DHT22;42229;51.230;6.240;2023-12-20T14:04:07;9.10;99.90
27647;DHT22;42229;51.230;6.240;2023-12-20T14:06:33;9.10;99.90
27647;DHT22;42229;51.230;6.240;2023-12-20T14:08:59;9.10;99.90
27647;DHT22;42229;51.230;6.240;2023-12-20T14:11:26;9.20;99.90
27647;DHT22;42229;51.230;6.240;2023-12-20T14:13:52;9.20;99.90
27647;DHT22;42229;51.230;6.240;2023-12-20T14:16:23;9.20;99.90
27647;DHT22;42229;51.230;6.240;2023-12-20T14:18:50;9.20;99.90
27647;DHT22;42229;51.230;6.240;2023-12-20T14:21:17;9.30;99.90
27647;DHT22;42229;51.230;6.240;2023-12-20T14:23:45;9.30;99.90
27647;DHT22;42229;51.230;6.240;2023-12-20T14:26:12;9.30;99.90
27647;DHT22;42229;51.230;6.240;2023-12-20T14:28:41;9.40;99.90
27647;DHT22;42229;51.230;6.240;2023-12-20T14:31:07;9.40;99.90
27647;DHT22;42229;51.230;6.240;2023-12-20T14:33:36;9.40;99.90
27647;DHT22;42229;51.230;6.240;2023-12-20T14:36:07;9.40;99.90
27647;DHT22;42229;51.230;6.240;2023-12-20T14:38:33;9.40;99.90
27647;DHT22;42229;51.230;6.240;2023-12-20T14:41:00;9.50;99.90
27647;DHT22;42229;51.230;6.240;2023-12-20T14:43:26;9.50;99.90
27647;DHT22;42229;51.230;6.240;2023-12-20T14:45:52;9.50;99.90
27647;DHT22;42229;51.230;6.240;2023-12-20T14:48:19;9.40;99.90
27647;DHT22;42229;51.230;6.240;2023-12-20T14:50:45;9.40;99.90
27647;DHT22;42229;51.230;6.240;2023-12-20T14:53:14;9.50;99.90
27647;DHT22;42229;51.230;6.240;2023-12-20T14:55:44;9.50;99.90
27647;DHT22;42229;51.230;6.240;2023-12-20T14:58:10;9.50;99.90
27647;DHT22;42229;51.230;6.240;2023-12-20T15:00:37;9.50;99.90
27647;DHT22;42229;51.230;6.240;2023-12-20T15:03:03;9.50;99.90
27647;DHT22;42229;51.230;6.240;2023-12-20T15:05:31;9.50;99.90
27647;DHT22;42229;51.230;6.240;2023-12-20T15:07:57;9.60;99.90
27647;DHT22;42229;51.230;6.240;2023-12-20T15:10:24;9.50;99.90
27647;DHT22;42229;51.230;6.240;2023-12-20T15:12:50;9.50;99.90
27647;DHT22;42229;51.230;6.240;2023-12-20T15:15:16;9.50;99.90
27647;DHT22;42229;51.230;6.240;2023-12-20T15:17:42;9.50;99.90
27647;DHT22;42229;51.230;6.240;2023-12-20T15:20:09;9.60;99.90
27647;DHT22;42229;51.230;6.240;2023-12-20T15:22:36;9.60;99.90
27647;DHT22;42229;51.230;6.240;2023-12-20T15:25:03;9.60;99.90
27647;DHT22;42229;51.230;6.240;2023-12-20T15:27:31;9.60;99.90
27647;DHT22;42229;51.230;6.240;2023-12-20T15:29:59;9.60;99.90
27647;DHT22;42229;51.230;6.240;2023-12-20T15:32:25;9.60;99.90
27647;DHT22;42229;51.230;6.240;2023-12-20T15:34:51;9.60;99.90
27647;DHT22;42229;51.230;6.240;2023-12-20T15:37:19;9.60;99.90
27647;DHT22;42229;51.230;6.240;2023-12-20T15:39:45;9.60;99.90
27647;DHT22;42229;51.230;6.240;2023-12-20T15:42:11;9.60;99.90
27647;DHT22;42229;51.230;6.240;2023-12-20T15:44:37;9.60;99.90
27647;DHT22;42229;51.230;6.240;2023-12-20T15:47:03;9.60;99.90
27647;DHT22;42229;51.230;6.240;2023-12-20T15:49:30;9.60;99.90